Airfield :
LOGIN :

Register | Disclaimer

   EN    FR    IT 

 










Legend :    VFR   Marginal VFR   IFR   Intensive IFR   Very Intensive IFR
Visi :
Ceiling :
>= 8 km
>= 3000ft
5 to 8 km
1000 to 3000 ft
1500m to 5 km
500 to 1000 ft
800 to 1500m
200 to 500 ft
< 800m
< 200 ft
Symbols :   Thunderstorms  Fog  Heavy snow  Heavy precipitations  Wind > 20 kt
SIGMETs :     Misc.  Thunderstorms  Icing  Turbulence  Mountain Waves  Volcanic Ashes







- Airport Elevation : 204 ft
- IATA code : AGF
- Download approach charts


LFBA - Agen

CURRENT METAR :
  • 210730Z AUTO 16004KT 130V200 2900 BR OVC003 13/13 Q1024 TEMPO 0400 FG VV///

EXPIRED METARs :
  • 210700Z AUTO 16003KT 130V220 2500 BR OVC002 13/13 Q1024 BECMG 0400 FG VV///
  • 210630Z AUTO 17004KT 140V200 1600 BR OVC002 14/14 Q1023 BECMG 0400 FG VV///
  • 210600Z AUTO 11004KT 1500 1400 R29/1800D BR VV/// 14/14 Q1023 BECMG 0400 FG
  • 210530Z AUTO 10005KT 1800 BR OVC002 14/14 Q1023 BECMG 0400 FG VV///
  • 210500Z AUTO 13004KT 100V180 1200 1100 R29/1400U BR VV/// 14/14 Q1023

TAF TAF LFBA
Valid from the 21 at 06:00 until the 21 at 15:00 UTC


210500Z 2106/2115 12005KT 0400 FG VV///
BECMG 2109/2111 2000 BR BKN002
BECMG 2111/2113 CAVOK
No reported NOTAMs for that airfield.



MET'MAP, your aeronautical weather chart ! - Copyright ORBIFLY December 2007 - Disclaimer

ORBIFLY MET'MAP TEAM :

Programming & Development : Alexandra Zaïnal
Concept & Development : Baudouin d'Aumeries
Co-Development & Prog : Marc-Olivier Méhu
Technical & hardware support : Manuel Goepfert

Contact : metmap@orbifly.com




SOURCES & CREDITS :

   NOAA